sensor_id;sensor_type;location;lat;lon;timestamp;P1;durP1;ratioP1;P2;durP2;ratioP2
9809;SDS011;4944;52.514;13.192;2023-10-31T00:00:52;4.10;;;3.53;;
9809;SDS011;4944;52.514;13.192;2023-10-31T00:03:19;5.77;;;3.53;;
9809;SDS011;4944;52.514;13.192;2023-10-31T00:05:47;5.07;;;3.27;;
9809;SDS011;4944;52.514;13.192;2023-10-31T00:08:15;4.03;;;3.63;;
9809;SDS011;4944;52.514;13.192;2023-10-31T00:10:42;5.93;;;3.93;;
9809;SDS011;4944;52.514;13.192;2023-10-31T00:13:09;5.07;;;3.97;;
9809;SDS011;4944;52.514;13.192;2023-10-31T00:15:37;4.00;;;3.40;;
9809;SDS011;4944;52.514;13.192;2023-10-31T00:18:04;4.57;;;3.63;;
9809;SDS011;4944;52.514;13.192;2023-10-31T00:20:31;3.90;;;3.50;;
9809;SDS011;4944;52.514;13.192;2023-10-31T00:22:59;5.33;;;3.63;;
9809;SDS011;4944;52.514;13.192;2023-10-31T00:25:29;5.53;;;3.60;;
9809;SDS011;4944;52.514;13.192;2023-10-31T00:27:56;5.27;;;3.67;;
9809;SDS011;4944;52.514;13.192;2023-10-31T00:30:23;3.60;;;3.30;;
9809;SDS011;4944;52.514;13.192;2023-10-31T00:32:50;3.40;;;3.10;;
9809;SDS011;4944;52.514;13.192;2023-10-31T00:35:17;4.07;;;3.53;;
9809;SDS011;4944;52.514;13.192;2023-10-31T00:37:44;6.57;;;3.57;;
9809;SDS011;4944;52.514;13.192;2023-10-31T00:40:12;5.07;;;3.60;;
9809;SDS011;4944;52.514;13.192;2023-10-31T00:42:41;4.80;;;3.77;;
9809;SDS011;4944;52.514;13.192;2023-10-31T00:45:08;5.10;;;3.60;;
9809;SDS011;4944;52.514;13.192;2023-10-31T00:47:35;4.50;;;3.63;;
9809;SDS011;4944;52.514;13.192;2023-10-31T00:50:03;4.07;;;3.40;;
9809;SDS011;4944;52.514;13.192;2023-10-31T00:52:30;3.70;;;3.40;;
9809;SDS011;4944;52.514;13.192;2023-10-31T00:54:57;4.77;;;3.70;;
9809;SDS011;4944;52.514;13.192;2023-10-31T00:57:25;4.50;;;3.67;;
9809;SDS011;4944;52.514;13.192;2023-10-31T00:59:55;5.63;;;3.50;;
9809;SDS011;4944;52.514;13.192;2023-10-31T01:02:21;5.43;;;3.63;;
9809;SDS011;4944;52.514;13.192;2023-10-31T01:04:48;5.50;;;3.47;;
9809;SDS011;4944;52.514;13.192;2023-10-31T01:07:15;4.40;;;3.53;;
9809;SDS011;4944;52.514;13.192;2023-10-31T01:09:43;3.70;;;3.50;;
9809;SDS011;4944;52.514;13.192;2023-10-31T01:12:10;4.57;;;4.00;;
9809;SDS011;4944;52.514;13.192;2023-10-31T01:14:38;4.37;;;3.57;;
9809;SDS011;4944;52.514;13.192;2023-10-31T01:17:05;5.73;;;3.63;;
9809;SDS011;4944;52.514;13.192;2023-10-31T01:19:33;5.07;;;3.53;;
9809;SDS011;4944;52.514;13.192;2023-10-31T01:21:59;3.67;;;3.30;;
9809;SDS011;4944;52.514;13.192;2023-10-31T01:24:25;5.47;;;3.67;;
9809;SDS011;4944;52.514;13.192;2023-10-31T01:26:52;4.00;;;3.70;;
9809;SDS011;4944;52.514;13.192;2023-10-31T01:29:19;5.37;;;3.77;;
9809;SDS011;4944;52.514;13.192;2023-10-31T01:31:47;4.70;;;3.63;;
9809;SDS011;4944;52.514;13.192;2023-10-31T01:34:14;4.53;;;3.70;;
9809;SDS011;4944;52.514;13.192;2023-10-31T01:36:41;5.23;;;4.00;;
9809;SDS011;4944;52.514;13.192;2023-10-31T01:39:08;4.67;;;4.13;;
9809;SDS011;4944;52.514;13.192;2023-10-31T01:41:35;4.93;;;3.67;;
9809;SDS011;4944;52.514;13.192;2023-10-31T01:44:02;4.53;;;3.47;;
9809;SDS011;4944;52.514;13.192;2023-10-31T01:46:29;4.03;;;3.63;;
9809;SDS011;4944;52.514;13.192;2023-10-31T01:48:58;4.53;;;3.77;;
9809;SDS011;4944;52.514;13.192;2023-10-31T01:51:25;6.77;;;4.03;;
9809;SDS011;4944;52.514;13.192;2023-10-31T01:53:52;4.10;;;3.60;;
9809;SDS011;4944;52.514;13.192;2023-10-31T01:56:19;4.40;;;4.10;;
9809;SDS011;4944;52.514;13.192;2023-10-31T01:58:47;3.90;;;3.60;;
9809;SDS011;4944;52.514;13.192;2023-10-31T02:01:15;3.97;;;3.30;;
9809;SDS011;4944;52.514;13.192;2023-10-31T02:03:42;6.40;;;3.83;;
9809;SDS011;4944;52.514;13.192;2023-10-31T02:06:11;4.10;;;3.77;;
9809;SDS011;4944;52.514;13.192;2023-10-31T02:08:38;5.27;;;3.83;;
9809;SDS011;4944;52.514;13.192;2023-10-31T02:11:05;4.87;;;4.07;;
9809;SDS011;4944;52.514;13.192;2023-10-31T02:13:35;4.30;;;3.80;;
9809;SDS011;4944;52.514;13.192;2023-10-31T02:16:02;7.17;;;3.87;;
9809;SDS011;4944;52.514;13.192;2023-10-31T02:18:29;4.23;;;3.80;;
9809;SDS011;4944;52.514;13.192;2023-10-31T02:20:56;6.23;;;3.77;;
9809;SDS011;4944;52.514;13.192;2023-10-31T02:23:24;7.10;;;3.80;;
9809;SDS011;4944;52.514;13.192;2023-10-31T02:25:51;5.53;;;3.63;;
9809;SDS011;4944;52.514;13.192;2023-10-31T02:28:18;8.17;;;4.10;;
9809;SDS011;4944;52.514;13.192;2023-10-31T02:30:44;3.87;;;3.57;;
9809;SDS011;4944;52.514;13.192;2023-10-31T02:33:11;4.63;;;4.00;;
9809;SDS011;4944;52.514;13.192;2023-10-31T02:35:38;6.80;;;3.77;;
9809;SDS011;4944;52.514;13.192;2023-10-31T02:38:05;4.30;;;3.90;;
9809;SDS011;4944;52.514;13.192;2023-10-31T02:40:33;4.03;;;3.67;;
9809;SDS011;4944;52.514;13.192;2023-10-31T02:43:00;4.37;;;3.97;;
9809;SDS011;4944;52.514;13.192;2023-10-31T02:45:27;6.57;;;4.37;;
9809;SDS011;4944;52.514;13.192;2023-10-31T02:47:54;5.63;;;3.73;;
9809;SDS011;4944;52.514;13.192;2023-10-31T02:50:21;5.27;;;3.83;;
9809;SDS011;4944;52.514;13.192;2023-10-31T02:52:48;4.70;;;4.07;;
9809;SDS011;4944;52.514;13.192;2023-10-31T02:55:15;5.80;;;4.40;;
9809;SDS011;4944;52.514;13.192;2023-10-31T02:57:43;5.93;;;4.00;;
9809;SDS011;4944;52.514;13.192;2023-10-31T03:00:10;4.17;;;3.77;;
9809;SDS011;4944;52.514;13.192;2023-10-31T03:02:38;5.03;;;4.00;;
9809;SDS011;4944;52.514;13.192;2023-10-31T03:05:05;5.73;;;4.00;;
9809;SDS011;4944;52.514;13.192;2023-10-31T03:07:32;4.67;;;3.80;;
9809;SDS011;4944;52.514;13.192;2023-10-31T03:09:59;4.10;;;3.80;;
9809;SDS011;4944;52.514;13.192;2023-10-31T03:12:26;5.17;;;4.20;;
9809;SDS011;4944;52.514;13.192;2023-10-31T03:14:55;4.20;;;3.90;;
9809;SDS011;4944;52.514;13.192;2023-10-31T03:17:22;8.13;;;4.50;;
9809;SDS011;4944;52.514;13.192;2023-10-31T03:19:50;4.27;;;3.83;;
9809;SDS011;4944;52.514;13.192;2023-10-31T03:22:17;5.53;;;4.40;;
9809;SDS011;4944;52.514;13.192;2023-10-31T03:24:44;5.17;;;4.30;;
9809;SDS011;4944;52.514;13.192;2023-10-31T03:27:11;6.23;;;4.57;;
9809;SDS011;4944;52.514;13.192;2023-10-31T03:29:38;6.27;;;4.27;;
9809;SDS011;4944;52.514;13.192;2023-10-31T03:32:06;6.20;;;4.17;;
9809;SDS011;4944;52.514;13.192;2023-10-31T03:34:35;4.63;;;4.20;;
9809;SDS011;4944;52.514;13.192;2023-10-31T03:37:02;9.00;;;4.20;;
9809;SDS011;4944;52.514;13.192;2023-10-31T03:39:29;8.17;;;4.97;;
9809;SDS011;4944;52.514;13.192;2023-10-31T03:41:56;6.33;;;3.97;;
9809;SDS011;4944;52.514;13.192;2023-10-31T03:44:23;4.37;;;3.97;;
9809;SDS011;4944;52.514;13.192;2023-10-31T03:46:50;4.43;;;4.13;;
9809;SDS011;4944;52.514;13.192;2023-10-31T03:49:18;5.60;;;4.10;;
9809;SDS011;4944;52.514;13.192;2023-10-31T03:51:45;4.50;;;3.77;;
9809;SDS011;4944;52.514;13.192;2023-10-31T03:54:13;5.37;;;4.30;;
9809;SDS011;4944;52.514;13.192;2023-10-31T03:56:40;7.00;;;4.07;;
9809;SDS011;4944;52.514;13.192;2023-10-31T03:59:07;5.80;;;4.20;;
9809;SDS011;4944;52.514;13.192;2023-10-31T04:01:34;4.60;;;4.10;;
9809;SDS011;4944;52.514;13.192;2023-10-31T04:04:01;4.37;;;4.03;;
9809;SDS011;4944;52.514;13.192;2023-10-31T04:06:30;4.43;;;4.03;;
9809;SDS011;4944;52.514;13.192;2023-10-31T04:08:56;6.60;;;4.27;;
9809;SDS011;4944;52.514;13.192;2023-10-31T04:11:23;5.00;;;4.50;;
9809;SDS011;4944;52.514;13.192;2023-10-31T04:13:50;5.53;;;4.60;;
9809;SDS011;4944;52.514;13.192;2023-10-31T04:16:17;5.40;;;5.00;;
9809;SDS011;4944;52.514;13.192;2023-10-31T04:18:44;5.57;;;5.03;;
9809;SDS011;4944;52.514;13.192;2023-10-31T04:21:11;5.60;;;4.93;;
9809;SDS011;4944;52.514;13.192;2023-10-31T04:23:39;6.23;;;5.17;;
9809;SDS011;4944;52.514;13.192;2023-10-31T04:26:06;6.27;;;4.77;;
9809;SDS011;4944;52.514;13.192;2023-10-31T04:28:33;5.60;;;5.13;;
9809;SDS011;4944;52.514;13.192;2023-10-31T04:31:00;7.10;;;5.63;;
9809;SDS011;4944;52.514;13.192;2023-10-31T04:33:27;5.60;;;5.20;;
9809;SDS011;4944;52.514;13.192;2023-10-31T04:35:55;7.30;;;6.67;;
9809;SDS011;4944;52.514;13.192;2023-10-31T04:38:22;10.33;;;6.43;;
9809;SDS011;4944;52.514;13.192;2023-10-31T04:40:50;6.50;;;5.90;;
9809;SDS011;4944;52.514;13.192;2023-10-31T04:43:17;6.27;;;5.80;;
9809;SDS011;4944;52.514;13.192;2023-10-31T04:45:44;7.53;;;6.10;;
9809;SDS011;4944;52.514;13.192;2023-10-31T04:48:12;6.63;;;5.90;;
9809;SDS011;4944;52.514;13.192;2023-10-31T04:50:39;6.67;;;6.07;;
9809;SDS011;4944;52.514;13.192;2023-10-31T04:53:06;6.67;;;6.07;;
9809;SDS011;4944;52.514;13.192;2023-10-31T04:55:33;7.13;;;6.43;;
9809;SDS011;4944;52.514;13.192;2023-10-31T04:58:03;6.60;;;6.03;;
9809;SDS011;4944;52.514;13.192;2023-10-31T05:00:29;7.17;;;5.93;;
9809;SDS011;4944;52.514;13.192;2023-10-31T05:02:56;6.23;;;5.83;;
9809;SDS011;4944;52.514;13.192;2023-10-31T05:05:25;6.70;;;6.10;;
9809;SDS011;4944;52.514;13.192;2023-10-31T05:07:51;11.27;;;6.13;;
9809;SDS011;4944;52.514;13.192;2023-10-31T05:10:18;6.50;;;5.87;;
9809;SDS011;4944;52.514;13.192;2023-10-31T05:12:45;5.93;;;5.53;;
9809;SDS011;4944;52.514;13.192;2023-10-31T05:15:13;6.33;;;5.83;;
9809;SDS011;4944;52.514;13.192;2023-10-31T05:17:40;6.30;;;5.80;;
9809;SDS011;4944;52.514;13.192;2023-10-31T05:20:08;6.00;;;5.40;;
9809;SDS011;4944;52.514;13.192;2023-10-31T05:22:36;5.50;;;5.13;;
9809;SDS011;4944;52.514;13.192;2023-10-31T05:25:03;5.27;;;4.87;;
9809;SDS011;4944;52.514;13.192;2023-10-31T05:27:31;5.47;;;5.07;;
9809;SDS011;4944;52.514;13.192;2023-10-31T05:29:58;6.23;;;5.30;;
9809;SDS011;4944;52.514;13.192;2023-10-31T05:32:26;5.70;;;5.30;;
9809;SDS011;4944;52.514;13.192;2023-10-31T05:34:53;5.07;;;4.77;;
9809;SDS011;4944;52.514;13.192;2023-10-31T05:37:20;5.10;;;4.80;;
9809;SDS011;4944;52.514;13.192;2023-10-31T05:39:47;5.10;;;4.73;;
9809;SDS011;4944;52.514;13.192;2023-10-31T05:42:14;5.37;;;5.00;;
9809;SDS011;4944;52.514;13.192;2023-10-31T05:44:40;5.20;;;4.90;;
9809;SDS011;4944;52.514;13.192;2023-10-31T05:47:07;5.40;;;5.00;;
9809;SDS011;4944;52.514;13.192;2023-10-31T05:49:37;6.23;;;5.83;;
9809;SDS011;4944;52.514;13.192;2023-10-31T05:52:04;5.63;;;5.13;;
9809;SDS011;4944;52.514;13.192;2023-10-31T05:54:31;5.80;;;5.40;;
9809;SDS011;4944;52.514;13.192;2023-10-31T05:56:58;6.47;;;5.97;;
9809;SDS011;4944;52.514;13.192;2023-10-31T05:59:25;5.73;;;5.33;;
9809;SDS011;4944;52.514;13.192;2023-10-31T06:01:51;6.50;;;5.93;;
9809;SDS011;4944;52.514;13.192;2023-10-31T06:04:17;7.03;;;6.43;;
9809;SDS011;4944;52.514;13.192;2023-10-31T06:06:46;7.17;;;6.57;;
9809;SDS011;4944;52.514;13.192;2023-10-31T06:09:13;7.23;;;6.50;;
9809;SDS011;4944;52.514;13.192;2023-10-31T06:11:40;7.63;;;7.03;;
9809;SDS011;4944;52.514;13.192;2023-10-31T06:14:08;8.10;;;7.23;;
9809;SDS011;4944;52.514;13.192;2023-10-31T06:16:39;9.30;;;7.10;;
9809;SDS011;4944;52.514;13.192;2023-10-31T06:19:06;8.33;;;7.13;;
9809;SDS011;4944;52.514;13.192;2023-10-31T06:21:33;8.43;;;7.63;;
9809;SDS011;4944;52.514;13.192;2023-10-31T06:24:02;7.40;;;6.80;;
9809;SDS011;4944;52.514;13.192;2023-10-31T06:26:29;7.67;;;6.97;;
9809;SDS011;4944;52.514;13.192;2023-10-31T06:28:56;7.23;;;6.67;;
9809;SDS011;4944;52.514;13.192;2023-10-31T06:31:23;8.73;;;7.07;;
9809;SDS011;4944;52.514;13.192;2023-10-31T06:33:49;7.63;;;7.07;;
9809;SDS011;4944;52.514;13.192;2023-10-31T06:36:16;7.20;;;6.37;;
9809;SDS011;4944;52.514;13.192;2023-10-31T06:38:43;6.93;;;6.33;;
9809;SDS011;4944;52.514;13.192;2023-10-31T06:41:11;7.07;;;6.00;;
9809;SDS011;4944;52.514;13.192;2023-10-31T06:43:38;5.80;;;5.40;;
9809;SDS011;4944;52.514;13.192;2023-10-31T06:46:05;6.70;;;5.97;;
9809;SDS011;4944;52.514;13.192;2023-10-31T06:48:32;6.57;;;5.20;;
9809;SDS011;4944;52.514;13.192;2023-10-31T06:50:59;5.60;;;5.00;;
9809;SDS011;4944;52.514;13.192;2023-10-31T06:53:26;5.73;;;4.40;;
9809;SDS011;4944;52.514;13.192;2023-10-31T06:55:53;5.67;;;5.00;;
9809;SDS011;4944;52.514;13.192;2023-10-31T06:58:21;5.23;;;4.73;;
9809;SDS011;4944;52.514;13.192;2023-10-31T07:00:48;4.20;;;3.90;;
9809;SDS011;4944;52.514;13.192;2023-10-31T07:03:15;4.40;;;3.87;;
9809;SDS011;4944;52.514;13.192;2023-10-31T07:05:42;4.07;;;3.77;;
9809;SDS011;4944;52.514;13.192;2023-10-31T07:08:08;3.90;;;3.53;;
9809;SDS011;4944;52.514;13.192;2023-10-31T07:10:35;3.77;;;3.57;;
9809;SDS011;4944;52.514;13.192;2023-10-31T07:13:02;3.30;;;3.10;;
9809;SDS011;4944;52.514;13.192;2023-10-31T07:15:30;5.37;;;3.30;;
9809;SDS011;4944;52.514;13.192;2023-10-31T07:17:57;3.13;;;2.93;;
9809;SDS011;4944;52.514;13.192;2023-10-31T07:20:24;3.53;;;2.77;;
9809;SDS011;4944;52.514;13.192;2023-10-31T07:22:51;3.20;;;3.00;;
9809;SDS011;4944;52.514;13.192;2023-10-31T07:25:18;3.40;;;3.00;;
9809;SDS011;4944;52.514;13.192;2023-10-31T07:27:46;2.80;;;2.60;;
9809;SDS011;4944;52.514;13.192;2023-10-31T07:30:13;2.77;;;2.57;;
9809;SDS011;4944;52.514;13.192;2023-10-31T07:32:41;3.90;;;2.70;;
9809;SDS011;4944;52.514;13.192;2023-10-31T07:35:08;2.50;;;2.30;;
9809;SDS011;4944;52.514;13.192;2023-10-31T07:37:35;2.60;;;2.37;;
9809;SDS011;4944;52.514;13.192;2023-10-31T07:40:02;2.30;;;1.90;;
9809;SDS011;4944;52.514;13.192;2023-10-31T07:42:30;2.13;;;2.03;;
9809;SDS011;4944;52.514;13.192;2023-10-31T07:44:57;2.27;;;2.10;;
9809;SDS011;4944;52.514;13.192;2023-10-31T07:47:24;1.50;;;1.40;;
9809;SDS011;4944;52.514;13.192;2023-10-31T07:49:52;1.60;;;1.50;;
9809;SDS011;4944;52.514;13.192;2023-10-31T07:52:19;1.97;;;1.50;;
9809;SDS011;4944;52.514;13.192;2023-10-31T07:54:46;1.50;;;1.40;;
9809;SDS011;4944;52.514;13.192;2023-10-31T07:57:13;3.77;;;1.00;;
9809;SDS011;4944;52.514;13.192;2023-10-31T07:59:40;1.23;;;1.13;;
9809;SDS011;4944;52.514;13.192;2023-10-31T08:02:07;0.87;;;0.87;;
9809;SDS011;4944;52.514;13.192;2023-10-31T08:04:34;2.63;;;1.00;;
9809;SDS011;4944;52.514;13.192;2023-10-31T08:07:02;0.80;;;0.80;;
9809;SDS011;4944;52.514;13.192;2023-10-31T08:09:29;0.90;;;0.90;;
9809;SDS011;4944;52.514;13.192;2023-10-31T08:11:56;0.77;;;0.77;;
9809;SDS011;4944;52.514;13.192;2023-10-31T08:14:23;2.00;;;0.83;;
9809;SDS011;4944;52.514;13.192;2023-10-31T08:16:50;0.57;;;0.57;;
9809;SDS011;4944;52.514;13.192;2023-10-31T08:19:17;0.70;;;0.70;;
9809;SDS011;4944;52.514;13.192;2023-10-31T08:21:44;0.87;;;0.67;;
9809;SDS011;4944;52.514;13.192;2023-10-31T08:24:12;1.80;;;0.70;;
9809;SDS011;4944;52.514;13.192;2023-10-31T08:26:39;0.40;;;0.40;;
9809;SDS011;4944;52.514;13.192;2023-10-31T08:29:06;2.13;;;0.60;;
9809;SDS011;4944;52.514;13.192;2023-10-31T08:31:33;0.60;;;0.60;;
9809;SDS011;4944;52.514;13.192;2023-10-31T08:34:00;0.40;;;0.40;;
9809;SDS011;4944;52.514;13.192;2023-10-31T08:36:29;0.60;;;0.60;;
9809;SDS011;4944;52.514;13.192;2023-10-31T08:38:56;0.53;;;0.53;;
9809;SDS011;4944;52.514;13.192;2023-10-31T08:41:24;1.13;;;0.50;;
9809;SDS011;4944;52.514;13.192;2023-10-31T08:43:51;0.30;;;0.30;;
9809;SDS011;4944;52.514;13.192;2023-10-31T08:46:18;0.40;;;0.40;;
9809;SDS011;4944;52.514;13.192;2023-10-31T08:48:47;0.30;;;0.30;;
9809;SDS011;4944;52.514;13.192;2023-10-31T08:51:13;2.97;;;0.63;;
9809;SDS011;4944;52.514;13.192;2023-10-31T08:53:40;0.20;;;0.20;;
9809;SDS011;4944;52.514;13.192;2023-10-31T08:56:07;0.60;;;0.60;;
9809;SDS011;4944;52.514;13.192;2023-10-31T08:58:36;0.57;;;0.40;;
9809;SDS011;4944;52.514;13.192;2023-10-31T09:01:03;3.27;;;0.50;;
9809;SDS011;4944;52.514;13.192;2023-10-31T09:03:30;0.30;;;0.30;;
9809;SDS011;4944;52.514;13.192;2023-10-31T09:05:59;0.50;;;0.50;;
9809;SDS011;4944;52.514;13.192;2023-10-31T09:08:26;1.57;;;0.50;;
9809;SDS011;4944;52.514;13.192;2023-10-31T09:10:52;0.97;;;0.50;;
9809;SDS011;4944;52.514;13.192;2023-10-31T09:13:19;1.77;;;0.40;;
9809;SDS011;4944;52.514;13.192;2023-10-31T09:15:48;0.63;;;0.30;;
9809;SDS011;4944;52.514;13.192;2023-10-31T09:18:15;0.27;;;0.20;;
9809;SDS011;4944;52.514;13.192;2023-10-31T09:20:42;0.20;;;0.20;;
9809;SDS011;4944;52.514;13.192;2023-10-31T09:23:09;1.03;;;0.40;;
9809;SDS011;4944;52.514;13.192;2023-10-31T09:25:36;0.90;;;0.30;;
9809;SDS011;4944;52.514;13.192;2023-10-31T09:28:03;0.40;;;0.37;;
9809;SDS011;4944;52.514;13.192;2023-10-31T09:30:29;0.40;;;0.40;;
9809;SDS011;4944;52.514;13.192;2023-10-31T09:32:58;0.40;;;0.40;;
9809;SDS011;4944;52.514;13.192;2023-10-31T09:35:25;0.90;;;0.40;;
9809;SDS011;4944;52.514;13.192;2023-10-31T09:37:52;0.53;;;0.47;;
9809;SDS011;4944;52.514;13.192;2023-10-31T09:40:19;0.50;;;0.50;;
9809;SDS011;4944;52.514;13.192;2023-10-31T09:42:46;0.70;;;0.70;;
9809;SDS011;4944;52.514;13.192;2023-10-31T09:45:14;0.43;;;0.43;;
9809;SDS011;4944;52.514;13.192;2023-10-31T09:47:41;1.27;;;0.73;;
9809;SDS011;4944;52.514;13.192;2023-10-31T09:50:10;1.03;;;0.63;;
9809;SDS011;4944;52.514;13.192;2023-10-31T09:52:37;0.50;;;0.50;;
9809;SDS011;4944;52.514;13.192;2023-10-31T09:55:05;1.17;;;0.90;;
9809;SDS011;4944;52.514;13.192;2023-10-31T09:57:32;1.13;;;0.70;;
9809;SDS011;4944;52.514;13.192;2023-10-31T09:59:59;1.93;;;0.77;;
9809;SDS011;4944;52.514;13.192;2023-10-31T10:02:26;1.20;;;1.20;;
9809;SDS011;4944;52.514;13.192;2023-10-31T10:04:53;1.13;;;0.80;;
9809;SDS011;4944;52.514;13.192;2023-10-31T10:07:21;0.63;;;0.63;;
9809;SDS011;4944;52.514;13.192;2023-10-31T10:09:48;0.70;;;0.70;;
9809;SDS011;4944;52.514;13.192;2023-10-31T10:12:15;0.60;;;0.60;;
9809;SDS011;4944;52.514;13.192;2023-10-31T10:14:44;1.40;;;0.93;;
9809;SDS011;4944;52.514;13.192;2023-10-31T10:17:15;0.50;;;0.50;;
9809;SDS011;4944;52.514;13.192;2023-10-31T10:19:43;0.83;;;0.80;;
9809;SDS011;4944;52.514;13.192;2023-10-31T10:22:10;0.97;;;0.97;;
9809;SDS011;4944;52.514;13.192;2023-10-31T10:24:42;0.80;;;0.80;;
9809;SDS011;4944;52.514;13.192;2023-10-31T10:27:10;0.80;;;0.80;;
9809;SDS011;4944;52.514;13.192;2023-10-31T10:29:37;1.10;;;1.00;;
9809;SDS011;4944;52.514;13.192;2023-10-31T10:32:06;0.77;;;0.77;;
9809;SDS011;4944;52.514;13.192;2023-10-31T10:34:34;0.90;;;0.90;;
9809;SDS011;4944;52.514;13.192;2023-10-31T10:37:01;1.00;;;1.00;;
9809;SDS011;4944;52.514;13.192;2023-10-31T10:39:32;1.33;;;1.10;;
9809;SDS011;4944;52.514;13.192;2023-10-31T10:42:02;0.97;;;0.97;;
9809;SDS011;4944;52.514;13.192;2023-10-31T10:44:35;1.13;;;1.00;;
9809;SDS011;4944;52.514;13.192;2023-10-31T10:47:03;3.73;;;2.17;;
9809;SDS011;4944;52.514;13.192;2023-10-31T10:49:32;3.43;;;3.13;;
9809;SDS011;4944;52.514;13.192;2023-10-31T10:52:01;2.10;;;1.57;;
9809;SDS011;4944;52.514;13.192;2023-10-31T10:54:37;1.40;;;1.40;;
9809;SDS011;4944;52.514;13.192;2023-10-31T10:57:13;1.40;;;1.30;;
9809;SDS011;4944;52.514;13.192;2023-10-31T10:59:47;1.23;;;1.20;;
9809;SDS011;4944;52.514;13.192;2023-10-31T11:02:17;2.27;;;2.07;;
9809;SDS011;4944;52.514;13.192;2023-10-31T11:04:45;3.77;;;1.50;;
9809;SDS011;4944;52.514;13.192;2023-10-31T11:07:13;1.43;;;1.30;;
9809;SDS011;4944;52.514;13.192;2023-10-31T11:09:41;1.60;;;1.50;;
9809;SDS011;4944;52.514;13.192;2023-10-31T11:12:10;3.53;;;1.20;;
9809;SDS011;4944;52.514;13.192;2023-10-31T11:14:39;1.67;;;1.60;;
9809;SDS011;4944;52.514;13.192;2023-10-31T11:17:10;1.47;;;1.37;;
9809;SDS011;4944;52.514;13.192;2023-10-31T11:19:47;1.57;;;1.40;;
9809;SDS011;4944;52.514;13.192;2023-10-31T11:22:15;2.53;;;2.10;;
9809;SDS011;4944;52.514;13.192;2023-10-31T11:24:44;2.27;;;2.13;;
9809;SDS011;4944;52.514;13.192;2023-10-31T11:27:11;2.10;;;1.60;;
9809;SDS011;4944;52.514;13.192;2023-10-31T11:29:39;1.60;;;1.50;;
9809;SDS011;4944;52.514;13.192;2023-10-31T11:32:07;1.70;;;1.60;;
9809;SDS011;4944;52.514;13.192;2023-10-31T11:34:35;2.60;;;1.93;;
9809;SDS011;4944;52.514;13.192;2023-10-31T11:37:23;1.20;;;1.20;;
9809;SDS011;4944;52.514;13.192;2023-10-31T11:42:44;1.20;;;1.20;;
9809;SDS011;4944;52.514;13.192;2023-10-31T11:45:25;2.03;;;1.73;;
9809;SDS011;4944;52.514;13.192;2023-10-31T11:47:53;1.50;;;1.40;;
9809;SDS011;4944;52.514;13.192;2023-10-31T11:50:20;0.97;;;0.97;;
9809;SDS011;4944;52.514;13.192;2023-10-31T11:52:57;0.80;;;0.80;;
9809;SDS011;4944;52.514;13.192;2023-10-31T11:55:29;0.90;;;0.90;;
9809;SDS011;4944;52.514;13.192;2023-10-31T11:57:58;1.00;;;0.90;;
9809;SDS011;4944;52.514;13.192;2023-10-31T12:00:26;0.80;;;0.80;;
9809;SDS011;4944;52.514;13.192;2023-10-31T12:02:56;0.60;;;0.60;;
9809;SDS011;4944;52.514;13.192;2023-10-31T12:05:24;0.73;;;0.73;;
9809;SDS011;4944;52.514;13.192;2023-10-31T12:07:51;0.80;;;0.80;;
9809;SDS011;4944;52.514;13.192;2023-10-31T12:10:21;0.77;;;0.77;;
9809;SDS011;4944;52.514;13.192;2023-10-31T12:12:49;0.63;;;0.60;;
9809;SDS011;4944;52.514;13.192;2023-10-31T12:15:16;0.40;;;0.40;;
9809;SDS011;4944;52.514;13.192;2023-10-31T12:17:44;0.60;;;0.60;;
9809;SDS011;4944;52.514;13.192;2023-10-31T12:20:11;1.07;;;0.70;;
9809;SDS011;4944;52.514;13.192;2023-10-31T12:22:38;0.50;;;0.50;;
9809;SDS011;4944;52.514;13.192;2023-10-31T12:25:06;1.50;;;0.50;;
9809;SDS011;4944;52.514;13.192;2023-10-31T12:27:43;0.50;;;0.50;;
9809;SDS011;4944;52.514;13.192;2023-10-31T12:30:12;0.50;;;0.50;;
9809;SDS011;4944;52.514;13.192;2023-10-31T12:32:40;0.83;;;0.60;;
9809;SDS011;4944;52.514;13.192;2023-10-31T12:35:09;1.70;;;0.40;;
9809;SDS011;4944;52.514;13.192;2023-10-31T12:37:41;0.40;;;0.40;;
9809;SDS011;4944;52.514;13.192;2023-10-31T12:40:09;0.37;;;0.37;;
9809;SDS011;4944;52.514;13.192;2023-10-31T12:42:38;0.60;;;0.40;;
9809;SDS011;4944;52.514;13.192;2023-10-31T12:45:05;0.40;;;0.30;;
9809;SDS011;4944;52.514;13.192;2023-10-31T12:47:33;0.47;;;0.47;;
9809;SDS011;4944;52.514;13.192;2023-10-31T12:50:07;2.47;;;0.47;;
9809;SDS011;4944;52.514;13.192;2023-10-31T12:52:49;3.40;;;0.40;;
9809;SDS011;4944;52.514;13.192;2023-10-31T12:55:18;0.33;;;0.33;;
9809;SDS011;4944;52.514;13.192;2023-10-31T12:57:45;1.00;;;0.47;;
9809;SDS011;4944;52.514;13.192;2023-10-31T13:00:12;0.60;;;0.60;;
9809;SDS011;4944;52.514;13.192;2023-10-31T13:02:42;0.40;;;0.30;;
9809;SDS011;4944;52.514;13.192;2023-10-31T13:05:10;0.40;;;0.40;;
9809;SDS011;4944;52.514;13.192;2023-10-31T13:07:38;0.73;;;0.73;;
9809;SDS011;4944;52.514;13.192;2023-10-31T13:10:07;0.17;;;0.17;;
9809;SDS011;4944;52.514;13.192;2023-10-31T13:12:35;3.53;;;0.30;;
9809;SDS011;4944;52.514;13.192;2023-10-31T13:15:03;1.30;;;0.30;;
9809;SDS011;4944;52.514;13.192;2023-10-31T13:17:31;0.87;;;0.20;;
9809;SDS011;4944;52.514;13.192;2023-10-31T13:19:58;2.13;;;0.20;;
9809;SDS011;4944;52.514;13.192;2023-10-31T13:22:25;0.43;;;0.30;;
9809;SDS011;4944;52.514;13.192;2023-10-31T13:24:52;0.73;;;0.60;;
9809;SDS011;4944;52.514;13.192;2023-10-31T13:27:21;0.73;;;0.73;;
9809;SDS011;4944;52.514;13.192;2023-10-31T13:29:48;1.17;;;1.00;;
9809;SDS011;4944;52.514;13.192;2023-10-31T13:32:15;0.50;;;0.50;;
9809;SDS011;4944;52.514;13.192;2023-10-31T13:34:42;0.40;;;0.30;;
9809;SDS011;4944;52.514;13.192;2023-10-31T13:37:09;1.67;;;1.00;;
9809;SDS011;4944;52.514;13.192;2023-10-31T13:39:36;0.63;;;0.40;;
9809;SDS011;4944;52.514;13.192;2023-10-31T13:42:03;0.47;;;0.47;;
9809;SDS011;4944;52.514;13.192;2023-10-31T13:44:32;0.57;;;0.50;;
9809;SDS011;4944;52.514;13.192;2023-10-31T13:46:59;0.20;;;0.20;;
9809;SDS011;4944;52.514;13.192;2023-10-31T13:49:26;0.30;;;0.30;;
9809;SDS011;4944;52.514;13.192;2023-10-31T13:51:53;1.43;;;0.40;;
9809;SDS011;4944;52.514;13.192;2023-10-31T13:54:20;0.20;;;0.20;;
9809;SDS011;4944;52.514;13.192;2023-10-31T13:56:47;0.30;;;0.20;;
9809;SDS011;4944;52.514;13.192;2023-10-31T13:59:14;0.30;;;0.30;;
9809;SDS011;4944;52.514;13.192;2023-10-31T14:01:42;2.47;;;0.20;;
9809;SDS011;4944;52.514;13.192;2023-10-31T14:04:11;0.23;;;0.23;;
9809;SDS011;4944;52.514;13.192;2023-10-31T14:06:38;1.03;;;0.40;;
9809;SDS011;4944;52.514;13.192;2023-10-31T14:09:05;0.20;;;0.17;;
9809;SDS011;4944;52.514;13.192;2023-10-31T14:11:33;0.40;;;0.30;;
9809;SDS011;4944;52.514;13.192;2023-10-31T14:13:59;1.27;;;0.40;;
9809;SDS011;4944;52.514;13.192;2023-10-31T14:16:31;0.30;;;0.30;;
9809;SDS011;4944;52.514;13.192;2023-10-31T14:19:00;0.70;;;0.23;;
9809;SDS011;4944;52.514;13.192;2023-10-31T14:21:27;0.77;;;0.33;;
9809;SDS011;4944;52.514;13.192;2023-10-31T14:23:54;3.03;;;0.30;;
9809;SDS011;4944;52.514;13.192;2023-10-31T14:26:21;0.30;;;0.30;;
9809;SDS011;4944;52.514;13.192;2023-10-31T14:28:48;0.93;;;0.50;;
9809;SDS011;4944;52.514;13.192;2023-10-31T14:31:16;0.73;;;0.60;;
9809;SDS011;4944;52.514;13.192;2023-10-31T14:33:44;0.67;;;0.67;;
9809;SDS011;4944;52.514;13.192;2023-10-31T14:36:12;2.20;;;0.57;;
9809;SDS011;4944;52.514;13.192;2023-10-31T14:38:39;1.07;;;0.37;;
9809;SDS011;4944;52.514;13.192;2023-10-31T14:41:06;0.53;;;0.40;;
9809;SDS011;4944;52.514;13.192;2023-10-31T14:43:34;1.67;;;0.37;;
9809;SDS011;4944;52.514;13.192;2023-10-31T14:46:02;0.33;;;0.27;;
9809;SDS011;4944;52.514;13.192;2023-10-31T14:48:29;1.07;;;0.40;;
9809;SDS011;4944;52.514;13.192;2023-10-31T14:50:56;0.40;;;0.40;;
9809;SDS011;4944;52.514;13.192;2023-10-31T14:53:24;0.30;;;0.30;;
9809;SDS011;4944;52.514;13.192;2023-10-31T14:55:51;0.70;;;0.50;;
9809;SDS011;4944;52.514;13.192;2023-10-31T14:58:18;1.60;;;0.50;;
9809;SDS011;4944;52.514;13.192;2023-10-31T15:00:45;0.40;;;0.40;;
9809;SDS011;4944;52.514;13.192;2023-10-31T15:03:12;0.50;;;0.50;;
9809;SDS011;4944;52.514;13.192;2023-10-31T15:05:39;0.50;;;0.50;;